Weather at Campo di Volo AliPuglia

Public forecast

Using degrees Celsius for public forecast. Weather courtesy of forecast.io.

Closest aviation weather report (METAR) to Campo di Volo AliPuglia

Closest report is Taranto-Grottaglie "Marcello Arlotta" Airport, 9.8 nm (18.1 km) WNW. Retrieved 2021/10/16 15:50 UTC (1 hour ago):

LIBG 161550Z 31003KT 280V350 9999 SCT040 18/11 Q1014

Closest aviation forecast (TAF) to Campo di Volo AliPuglia

Forecast is more than 12 hours old.

Closest forecast is Taranto-Grottaglie "Marcello Arlotta" Airport, 9.8 nm (18.1 km) WNW. Retrieved 2017/11/11 18:24 UTC (4 years ago):

TAF TAF LIBG 111917Z 1118/1206 CNL